createdAt,value
2018-03-03T00:02:26.201Z,64.20
2018-03-03T00:04:53.717Z,67.37
2018-03-03T00:07:21.248Z,65.23
2018-03-03T00:09:49.525Z,67.17
2018-03-03T00:12:17.834Z,70.23
2018-03-03T00:14:45.322Z,68.73
2018-03-03T00:17:12.846Z,64.30
2018-03-03T00:19:40.385Z,70.07
2018-03-03T00:22:07.954Z,71.60
2018-03-03T00:24:35.450Z,64.50
2018-03-03T00:27:02.966Z,69.27
2018-03-03T00:29:30.518Z,69.40
2018-03-03T00:31:58.802Z,69.40
2018-03-03T00:34:26.345Z,71.30
2018-03-03T00:36:54.624Z,66.77
2018-03-03T00:39:23.127Z,66.80
2018-03-03T00:41:50.632Z,64.90
2018-03-03T00:44:18.225Z,69.43
2018-03-03T00:46:45.743Z,66.20
2018-03-03T00:49:13.265Z,69.90
2018-03-03T00:51:40.784Z,66.77
2018-03-03T00:54:09.076Z,69.97
2018-03-03T00:56:36.582Z,65.80
2018-03-03T00:59:04.085Z,65.80
2018-03-03T01:01:31.602Z,69.50
2018-03-03T01:03:59.201Z,67.03
2018-03-03T01:06:26.759Z,65.33
2018-03-03T01:08:54.285Z,68.33
2018-03-03T01:11:21.794Z,66.50
2018-03-03T01:13:49.316Z,67.30
2018-03-03T01:16:16.817Z,70.47
2018-03-03T01:18:44.308Z,65.93
2018-03-03T01:21:12.603Z,68.67
2018-03-03T01:23:40.969Z,70.47
2018-03-03T01:26:09.244Z,66.80
2018-03-03T01:28:37.561Z,67.80
2018-03-03T01:31:05.081Z,62.37
2018-03-03T01:33:33.393Z,67.90
2018-03-03T01:36:00.917Z,65.87
2018-03-03T01:38:29.193Z,66.37
2018-03-03T01:40:57.467Z,70.83
2018-03-03T01:43:25.763Z,68.03
2018-03-03T01:45:53.290Z,68.90
2018-03-03T01:48:20.809Z,70.23
2018-03-03T01:50:48.347Z,66.60
2018-03-03T01:53:15.883Z,66.63
2018-03-03T01:55:43.375Z,66.47
2018-03-03T01:58:10.898Z,66.90
2018-03-03T02:00:38.412Z,65.90
2018-03-03T02:03:05.942Z,66.07
2018-03-03T02:05:33.452Z,67.30
2018-03-03T02:08:01.705Z,66.83
2018-03-03T02:10:29.533Z,69.67
2018-03-03T02:12:57.030Z,63.77
2018-03-03T02:15:24.615Z,64.77
2018-03-03T02:17:52.888Z,69.30
2018-03-03T02:20:21.268Z,69.03
2018-03-03T02:22:49.533Z,62.97
2018-03-03T02:25:17.801Z,67.23
2018-03-03T02:27:46.091Z,72.10
2018-03-03T02:30:14.350Z,67.43
2018-03-03T02:32:42.660Z,64.40
2018-03-03T02:35:10.148Z,65.40
2018-03-03T02:37:37.643Z,66.37
2018-03-03T02:40:05.933Z,67.90
2018-03-03T02:42:34.191Z,65.87
2018-03-03T02:45:02.498Z,67.90
2018-03-03T02:47:30.044Z,64.83
2018-03-03T02:49:57.591Z,66.20
2018-03-03T02:52:25.873Z,67.47
2018-03-03T02:54:53.377Z,68.13
2018-03-03T02:57:20.998Z,67.63
2018-03-03T02:59:48.497Z,69.20
2018-03-03T03:02:16.008Z,66.83
2018-03-03T03:04:43.569Z,66.83
2018-03-03T03:07:11.109Z,67.47
2018-03-03T03:09:39.385Z,65.73
2018-03-03T03:12:07.653Z,68.90
2018-03-03T03:14:35.960Z,65.43
2018-03-03T03:17:03.466Z,67.60
2018-03-03T03:19:30.962Z,69.17
2018-03-03T03:21:58.475Z,68.83
2018-03-03T03:24:25.986Z,65.47
2018-03-03T03:26:53.495Z,69.13
2018-03-03T03:29:20.995Z,68.07
2018-03-03T03:31:48.507Z,67.47
2018-03-03T03:34:16.016Z,69.17
2018-03-03T03:36:43.573Z,69.40
2018-03-03T03:39:11.099Z,68.03
2018-03-03T03:41:39.406Z,69.27
2018-03-03T03:44:06.903Z,67.10
2018-03-03T03:46:34.435Z,65.97
2018-03-03T03:49:02.007Z,67.33
2018-03-03T03:51:29.508Z,67.50
2018-03-03T03:53:57.784Z,69.60
2018-03-03T03:56:26.073Z,63.20
2018-03-03T03:58:53.621Z,64.50
2018-03-03T04:01:21.182Z,63.40
2018-03-03T04:03:48.684Z,63.03
2018-03-03T04:06:16.196Z,63.30
2018-03-03T04:08:43.761Z,65.00
2018-03-03T04:11:11.300Z,61.57
2018-03-03T04:13:39.575Z,62.67
2018-03-03T04:16:07.877Z,64.07
2018-03-03T04:18:35.394Z,63.87
2018-03-03T04:21:03.681Z,63.57
2018-03-03T04:23:31.951Z,63.63
2018-03-03T04:26:00.227Z,62.17
2018-03-03T04:28:28.509Z,62.60
2018-03-03T04:30:56.023Z,64.00
2018-03-03T04:33:23.535Z,60.30
2018-03-03T04:35:51.056Z,60.93
2018-03-03T04:38:18.554Z,64.63
2018-03-03T04:40:46.108Z,62.10
2018-03-03T04:43:13.689Z,60.17
2018-03-03T04:45:41.231Z,61.13
2018-03-03T04:48:08.735Z,61.87
2018-03-03T04:50:36.264Z,60.47
2018-03-03T04:53:03.767Z,59.20
2018-03-03T04:55:32.039Z,61.83
2018-03-03T04:58:00.303Z,61.17
2018-03-03T05:00:41.592Z,58.13
2018-03-03T05:03:15.449Z,60.57
2018-03-03T05:05:48.640Z,60.30
2018-03-03T05:08:31.032Z,60.20
2018-03-03T05:10:58.544Z,60.30
2018-03-03T05:13:26.991Z,53.60
2018-03-03T05:19:03.153Z,55.33
2018-03-03T05:24:45.230Z,55.70
2018-03-03T05:27:16.462Z,56.00
2018-03-03T05:29:49.669Z,51.53
2018-03-03T05:32:23.542Z,52.70
2018-03-03T05:38:14.201Z,54.17
2018-03-03T05:40:47.491Z,49.27
2018-03-03T05:43:20.700Z,48.57
2018-03-03T05:45:53.913Z,46.97
2018-03-03T05:48:27.208Z,47.00
2018-03-03T05:54:18.193Z,48.00
2018-03-03T05:57:00.586Z,47.40
2018-03-03T05:59:29.456Z,48.90
2018-03-03T06:05:20.715Z,47.07
2018-03-03T06:07:53.855Z,45.13
2018-03-03T06:13:22.808Z,47.13
2018-03-03T06:15:50.317Z,41.83
2018-03-03T06:18:17.981Z,46.67
2018-03-03T06:20:45.475Z,47.93
2018-03-03T06:23:13.866Z,41.43
2018-03-03T06:25:41.428Z,43.13
2018-03-03T06:28:08.941Z,44.00
2018-03-03T06:30:36.550Z,46.13
2018-03-03T06:33:04.078Z,45.87
2018-03-03T06:35:32.375Z,41.43
2018-03-03T06:37:59.884Z,41.07
2018-03-03T06:40:27.478Z,44.37
2018-03-03T06:42:55.857Z,40.73
2018-03-03T06:45:24.135Z,42.90
2018-03-03T06:47:52.417Z,41.90
2018-03-03T06:50:19.930Z,44.33
2018-03-03T06:52:47.431Z,40.87
2018-03-03T06:55:14.950Z,40.63
2018-03-03T06:57:43.219Z,43.00
2018-03-03T07:00:10.734Z,40.53
2018-03-03T07:02:38.241Z,40.23
2018-03-03T07:05:05.819Z,43.30
2018-03-03T07:07:34.094Z,43.43
2018-03-03T07:10:02.485Z,41.30
2018-03-03T07:12:30.003Z,40.83
2018-03-03T07:14:57.497Z,40.10
2018-03-03T07:17:25.020Z,37.10
2018-03-03T07:19:52.524Z,40.07
2018-03-03T07:22:20.033Z,43.50
2018-03-03T07:24:47.542Z,41.47
2018-03-03T07:27:15.173Z,44.03
2018-03-03T07:29:42.699Z,47.10
2018-03-03T07:32:10.183Z,48.90
2018-03-03T07:34:38.453Z,50.50
2018-03-03T07:37:06.734Z,50.60
2018-03-03T07:39:34.262Z,55.43
2018-03-03T07:42:01.797Z,55.00
2018-03-03T07:44:29.306Z,54.20
2018-03-03T07:46:56.869Z,58.03
2018-03-03T07:49:24.376Z,56.47
2018-03-03T07:51:51.867Z,58.97
2018-03-03T07:54:20.169Z,57.60
2018-03-03T07:57:11.375Z,60.13
2018-03-03T07:59:38.896Z,58.13
2018-03-03T08:02:06.449Z,60.00
2018-03-03T08:04:33.965Z,60.73
2018-03-03T08:07:01.455Z,65.07
2018-03-03T08:09:28.935Z,64.87
2018-03-03T08:11:57.196Z,63.17
2018-03-03T08:14:24.783Z,58.47
2018-03-03T08:16:53.061Z,59.77
2018-03-03T08:19:20.628Z,61.80
2018-03-03T08:21:48.114Z,66.03
2018-03-03T08:24:15.641Z,64.43
2018-03-03T08:26:43.135Z,61.77
2018-03-03T08:29:10.630Z,61.20
2018-03-03T08:31:38.898Z,59.13
2018-03-03T08:34:07.180Z,57.10
2018-03-03T08:36:35.458Z,53.17
2018-03-03T08:39:03.730Z,52.87
2018-03-03T08:41:31.979Z,50.70
2018-03-03T08:43:59.511Z,50.87
2018-03-03T08:46:27.026Z,51.30
2018-03-03T08:48:55.300Z,49.37
2018-03-03T08:51:23.567Z,55.20
2018-03-03T08:53:51.842Z,63.93
2018-03-03T08:56:20.135Z,60.17
2018-03-03T08:58:47.662Z,61.50
2018-03-03T09:01:15.259Z,56.57
2018-03-03T09:03:42.756Z,55.40
2018-03-03T09:06:10.258Z,55.90
2018-03-03T09:08:37.751Z,57.93
2018-03-03T09:11:05.239Z,52.63
2018-03-03T09:13:33.044Z,55.50
2018-03-03T09:16:00.351Z,54.00
2018-03-03T09:18:27.872Z,58.70
2018-03-03T09:20:55.361Z,63.33
2018-03-03T09:23:22.899Z,59.73
2018-03-03T09:25:50.521Z,56.77
2018-03-03T09:28:18.140Z,55.00
2018-03-03T09:30:45.639Z,56.30
2018-03-03T09:33:13.179Z,55.03
2018-03-03T09:35:41.441Z,55.87
2018-03-03T09:38:09.024Z,61.33
2018-03-03T09:40:37.397Z,59.20
2018-03-03T09:43:05.658Z,58.03
2018-03-03T09:45:33.912Z,61.17
2018-03-03T09:48:01.411Z,61.30
2018-03-03T09:50:28.917Z,57.97
2018-03-03T09:52:56.420Z,63.67
2018-03-03T09:55:23.971Z,55.27
2018-03-03T09:57:52.367Z,63.97
2018-03-03T10:00:19.856Z,58.63
2018-03-03T10:02:47.349Z,69.97
2018-03-03T10:05:15.645Z,67.27
2018-03-03T10:07:43.153Z,69.30
2018-03-03T10:10:10.755Z,67.47
2018-03-03T10:12:39.018Z,64.67
2018-03-03T10:15:07.429Z,60.40
2018-03-03T10:17:34.977Z,62.90
2018-03-03T10:20:02.478Z,55.77
2018-03-03T10:22:30.019Z,61.37
2018-03-03T10:24:57.541Z,60.33
2018-03-03T10:27:25.018Z,61.53
2018-03-03T10:29:52.513Z,59.67
2018-03-03T10:32:20.042Z,57.03
2018-03-03T10:34:47.544Z,57.60
2018-03-03T10:37:15.842Z,58.83
2018-03-03T10:39:43.364Z,58.73
2018-03-03T10:42:10.866Z,57.33
2018-03-03T10:44:38.368Z,58.70
2018-03-03T10:47:06.667Z,60.77
2018-03-03T10:49:34.947Z,63.60
2018-03-03T10:52:03.225Z,64.80
2018-03-03T10:54:31.531Z,64.13
2018-03-03T10:56:59.064Z,70.43
2018-03-03T10:59:27.445Z,69.17
2018-03-03T11:01:55.004Z,65.60
2018-03-03T11:04:22.501Z,63.43
2018-03-03T11:06:50.017Z,70.30
2018-03-03T11:09:17.600Z,67.37
2018-03-03T11:11:45.105Z,69.40
2018-03-03T11:14:13.361Z,65.57
2018-03-03T11:16:40.889Z,67.80
2018-03-03T11:19:08.385Z,69.77
2018-03-03T11:21:35.927Z,62.17
2018-03-03T11:24:03.430Z,65.40
2018-03-03T11:26:31.707Z,64.67
2018-03-03T11:28:59.203Z,72.10
2018-03-03T11:31:26.819Z,66.03
2018-03-03T11:33:55.093Z,65.87
2018-03-03T11:36:23.493Z,66.00
2018-03-03T11:38:51.000Z,66.50
2018-03-03T11:41:18.999Z,65.43
2018-03-03T11:43:47.249Z,63.57
2018-03-03T11:46:14.775Z,61.83
2018-03-03T11:48:42.383Z,66.43
2018-03-03T11:51:10.678Z,63.30
2018-03-03T11:53:38.163Z,66.13
2018-03-03T11:56:05.663Z,61.20
2018-03-03T11:58:33.994Z,63.57
2018-03-03T12:01:01.447Z,61.07
2018-03-03T12:03:28.972Z,59.57
2018-03-03T12:05:56.516Z,60.77
2018-03-03T12:08:24.797Z,65.13
2018-03-03T12:10:53.093Z,62.80
2018-03-03T12:13:20.599Z,63.30
2018-03-03T12:15:48.187Z,61.40
2018-03-03T12:18:16.451Z,58.93
2018-03-03T12:20:44.710Z,61.60
2018-03-03T12:23:12.187Z,56.93
2018-03-03T12:25:40.453Z,58.90
2018-03-03T12:28:08.733Z,61.50
2018-03-03T12:30:37.005Z,62.77
2018-03-03T12:33:05.269Z,61.20
2018-03-03T12:35:33.557Z,64.43
2018-03-03T12:38:01.827Z,63.13
2018-03-03T12:40:29.400Z,63.00
2018-03-03T12:42:57.078Z,62.63
2018-03-03T12:45:24.570Z,61.53
2018-03-03T12:47:52.077Z,60.07
2018-03-03T12:50:20.339Z,61.93
2018-03-03T12:52:48.737Z,59.67
2018-03-03T12:55:16.250Z,61.30
2018-03-03T12:57:43.854Z,60.37
2018-03-03T13:00:11.354Z,63.50
2018-03-03T13:02:38.836Z,64.20
2018-03-03T13:05:07.112Z,59.77
2018-03-03T13:07:35.357Z,64.93
2018-03-03T13:10:02.962Z,63.77
2018-03-03T13:12:30.480Z,60.63
2018-03-03T13:14:57.971Z,60.77
2018-03-03T13:17:26.235Z,62.67
2018-03-03T13:19:54.939Z,62.00
2018-03-03T13:22:22.435Z,60.27
2018-03-03T13:24:50.044Z,56.37
2018-03-03T13:27:18.419Z,57.87
2018-03-03T13:29:46.666Z,59.47
2018-03-03T13:32:14.257Z,55.43
2018-03-03T13:34:41.778Z,54.60
2018-03-03T13:37:09.272Z,55.53
2018-03-03T13:39:36.787Z,53.50
2018-03-03T13:42:04.289Z,52.60
2018-03-03T13:44:31.841Z,52.87
2018-03-03T13:46:59.333Z,56.00
2018-03-03T13:49:26.836Z,50.83
2018-03-03T13:51:55.092Z,48.83
2018-03-03T13:54:22.617Z,49.60
2018-03-03T13:56:50.115Z,52.67
2018-03-03T13:59:17.822Z,50.50
2018-03-03T14:01:45.340Z,48.70
2018-03-03T14:04:13.658Z,54.90
2018-03-03T14:06:41.196Z,49.23
2018-03-03T14:09:08.788Z,48.90
2018-03-03T14:11:36.293Z,50.30
2018-03-03T14:14:04.688Z,45.70
2018-03-03T14:16:32.348Z,54.70
2018-03-03T14:18:59.843Z,49.27
2018-03-03T14:21:27.464Z,49.23
2018-03-03T14:23:55.023Z,49.00
2018-03-03T14:26:22.525Z,48.87
2018-03-03T14:28:50.156Z,44.90
2018-03-03T14:31:17.787Z,49.63
2018-03-03T14:33:46.058Z,45.03
2018-03-03T14:36:14.330Z,44.17
2018-03-03T14:38:42.613Z,48.67
2018-03-03T14:41:10.993Z,46.40
2018-03-03T14:43:39.258Z,49.83
2018-03-03T14:46:07.515Z,43.50
2018-03-03T14:48:34.999Z,49.13
2018-03-03T14:51:03.315Z,47.07
2018-03-03T14:53:30.833Z,47.83
2018-03-03T14:55:58.332Z,46.83
2018-03-03T14:58:25.954Z,51.43
2018-03-03T15:00:53.454Z,51.40
2018-03-03T15:03:20.948Z,44.60
2018-03-03T15:05:49.212Z,48.90
2018-03-03T15:08:16.731Z,47.57
2018-03-03T15:10:45.219Z,47.10
2018-03-03T15:13:12.713Z,47.57
2018-03-03T15:15:40.994Z,44.37
2018-03-03T15:18:09.256Z,45.50
2018-03-03T15:20:37.557Z,48.00
2018-03-03T15:23:05.073Z,49.83
2018-03-03T15:25:32.601Z,46.40
2018-03-03T15:28:00.102Z,44.77
2018-03-03T15:30:28.351Z,47.50
2018-03-03T15:32:55.847Z,49.57
2018-03-03T15:35:24.108Z,43.23
2018-03-03T15:37:52.384Z,51.83
2018-03-03T15:40:20.698Z,44.20
2018-03-03T15:42:48.228Z,43.10
2018-03-03T15:45:16.536Z,44.53
2018-03-03T15:47:44.023Z,46.60
2018-03-03T15:50:11.637Z,46.43
2018-03-03T15:52:39.149Z,45.93
2018-03-03T15:55:06.644Z,44.33
2018-03-03T15:57:34.131Z,43.40
2018-03-03T16:00:02.024Z,41.00
2018-03-03T16:02:29.621Z,45.07
2018-03-03T16:04:57.148Z,43.03
2018-03-03T16:07:24.685Z,42.47
2018-03-03T16:09:52.188Z,42.53
2018-03-03T16:12:19.686Z,40.77
2018-03-03T16:14:47.222Z,41.13
2018-03-03T16:17:14.759Z,44.57
2018-03-03T16:19:43.041Z,41.73
2018-03-03T16:22:10.540Z,41.73
2018-03-03T16:24:38.053Z,40.17
2018-03-03T16:27:05.581Z,40.70
2018-03-03T16:29:33.862Z,41.47
2018-03-03T16:32:02.131Z,45.17
2018-03-03T16:34:30.437Z,43.97
2018-03-03T16:36:57.943Z,43.63
2018-03-03T16:39:25.459Z,44.93
2018-03-03T16:41:52.965Z,42.30
2018-03-03T16:44:20.564Z,46.17
2018-03-03T16:46:48.117Z,42.00
2018-03-03T16:49:15.660Z,43.57
2018-03-03T16:51:43.238Z,49.03
2018-03-03T16:54:10.778Z,43.63
2018-03-03T16:56:39.045Z,44.93
2018-03-03T16:59:07.346Z,45.87
2018-03-03T17:01:34.864Z,44.67
2018-03-03T17:04:02.359Z,46.70
2018-03-03T17:06:29.881Z,44.07
2018-03-03T17:08:58.177Z,46.10
2018-03-03T17:11:26.447Z,45.00
2018-03-03T17:13:54.703Z,45.63
2018-03-03T17:16:22.217Z,46.07
2018-03-03T17:18:49.729Z,44.27
2018-03-03T17:21:18.115Z,44.57
2018-03-03T17:23:46.364Z,45.07
2018-03-03T17:26:13.869Z,46.00
2018-03-03T17:28:41.381Z,44.43
2018-03-03T17:31:08.883Z,43.73
2018-03-03T17:33:36.389Z,42.77
2018-03-03T17:36:03.975Z,44.03
2018-03-03T17:38:32.324Z,43.30
2018-03-03T17:40:59.841Z,45.47
2018-03-03T17:43:27.353Z,43.00
2018-03-03T17:45:55.614Z,45.70
2018-03-03T17:48:23.129Z,44.03
2018-03-03T17:50:50.630Z,45.00
2018-03-03T17:53:18.188Z,41.80
2018-03-03T17:55:45.687Z,41.93
2018-03-03T17:58:13.206Z,42.73
2018-03-03T18:00:40.719Z,44.43
2018-03-03T18:03:08.241Z,44.30
2018-03-03T18:05:36.500Z,46.20
2018-03-03T18:08:04.017Z,44.77
2018-03-03T18:10:31.637Z,45.87
2018-03-03T18:12:59.209Z,43.63
2018-03-03T18:15:26.713Z,45.27
2018-03-03T18:17:55.832Z,45.57
2018-03-03T18:20:24.101Z,44.50
2018-03-03T18:22:52.410Z,45.40
2018-03-03T18:25:19.905Z,47.33
2018-03-03T18:27:47.517Z,50.03
2018-03-03T18:30:15.030Z,44.73
2018-03-03T18:32:42.575Z,46.63
2018-03-03T18:35:10.084Z,45.67
2018-03-03T18:37:38.366Z,47.30
2018-03-03T18:40:05.966Z,46.50
2018-03-03T18:42:33.490Z,51.10
2018-03-03T18:45:01.042Z,48.20
2018-03-03T18:47:28.557Z,50.23
2018-03-03T18:49:56.174Z,49.80
2018-03-03T18:52:23.727Z,49.10
2018-03-03T18:54:51.240Z,47.67
2018-03-03T18:57:19.616Z,50.17
2018-03-03T18:59:47.877Z,45.83
2018-03-03T19:02:15.375Z,48.10
2018-03-03T19:04:42.886Z,48.70
2018-03-03T19:07:11.148Z,48.87
2018-03-03T19:09:38.665Z,53.30
2018-03-03T19:12:06.183Z,46.90
2018-03-03T19:14:33.726Z,48.60
2018-03-03T19:17:01.228Z,53.83
2018-03-03T19:19:28.736Z,50.20
2018-03-03T19:21:56.354Z,46.70
2018-03-03T19:24:23.861Z,50.10
2018-03-03T19:26:51.403Z,47.90
2018-03-03T19:29:19.067Z,45.93
2018-03-03T19:31:46.529Z,45.80
2018-03-03T19:34:14.045Z,47.77
2018-03-03T19:36:41.566Z,47.50
2018-03-03T19:39:09.908Z,46.90
2018-03-03T19:41:37.766Z,48.70
2018-03-03T19:44:05.433Z,48.97
2018-03-03T19:46:32.973Z,47.03
2018-03-03T19:49:00.475Z,45.10
2018-03-03T19:51:27.995Z,48.27
2018-03-03T19:53:56.135Z,47.60
2018-03-03T19:56:23.632Z,48.67
2018-03-03T19:58:51.164Z,50.20
2018-03-03T20:01:18.698Z,46.90
2018-03-03T20:03:46.959Z,48.53
2018-03-03T20:06:15.258Z,47.97
2018-03-03T20:08:42.972Z,48.27
2018-03-03T20:11:10.491Z,47.80
2018-03-03T20:13:38.026Z,48.10
2018-03-03T20:16:05.517Z,53.10
2018-03-03T20:18:33.060Z,49.83
2018-03-03T20:21:00.596Z,49.37
2018-03-03T20:23:28.866Z,48.90
2018-03-03T20:25:57.129Z,46.97
2018-03-03T20:28:25.629Z,47.97
2018-03-03T20:31:03.707Z,51.30
2018-03-03T20:33:32.316Z,51.67
2018-03-03T20:36:00.085Z,51.30
2018-03-03T20:38:38.482Z,51.70
2018-03-03T20:41:06.184Z,51.50
2018-03-03T20:43:35.583Z,50.57
2018-03-03T20:46:03.553Z,54.50
2018-03-03T20:48:31.506Z,51.77
2018-03-03T20:51:01.779Z,53.47
2018-03-03T20:53:30.968Z,53.67
2018-03-03T20:56:00.143Z,49.80
2018-03-03T20:58:29.119Z,50.97
2018-03-03T21:00:58.168Z,52.90
2018-03-03T21:03:26.747Z,52.87
2018-03-03T21:05:55.795Z,50.60
2018-03-03T21:08:25.301Z,51.70
2018-03-03T21:10:54.830Z,50.60
2018-03-03T21:13:22.433Z,53.23
2018-03-03T21:15:49.919Z,50.83
2018-03-03T21:18:17.429Z,52.43
2018-03-03T21:20:44.925Z,49.63
2018-03-03T21:23:12.449Z,50.40
2018-03-03T21:25:39.935Z,50.37
2018-03-03T21:28:07.438Z,47.23
2018-03-03T21:30:34.998Z,50.50
2018-03-03T21:33:02.502Z,48.20
2018-03-03T21:35:30.024Z,48.83
2018-03-03T21:37:57.518Z,48.70
2018-03-03T21:40:25.029Z,48.80
2018-03-03T21:42:52.557Z,48.30
2018-03-03T21:45:20.911Z,50.77
2018-03-03T21:47:48.407Z,50.13
2018-03-03T21:50:16.689Z,49.60
2018-03-03T21:52:44.205Z,49.80
2018-03-03T21:55:12.485Z,49.27
2018-03-03T21:57:39.971Z,49.27
2018-03-03T22:00:07.473Z,49.80
2018-03-03T22:02:34.984Z,51.43
2018-03-03T22:05:03.265Z,51.07
2018-03-03T22:07:30.744Z,48.53
2018-03-03T22:09:58.320Z,49.10
2018-03-03T22:12:25.846Z,49.70
2018-03-03T22:14:53.621Z,51.80
2018-03-03T22:17:21.250Z,49.97
2018-03-03T22:19:49.546Z,51.77
2018-03-03T22:22:17.086Z,48.43
2018-03-03T22:24:44.624Z,52.60
2018-03-03T22:27:12.882Z,50.03
2018-03-03T22:29:40.405Z,55.17
2018-03-03T22:32:07.927Z,50.60
2018-03-03T22:34:35.504Z,50.93
2018-03-03T22:37:03.015Z,55.07
2018-03-03T22:39:30.623Z,52.80
2018-03-03T22:41:58.150Z,49.90
2018-03-03T22:44:26.457Z,53.37
2018-03-03T22:46:53.944Z,51.93
2018-03-03T22:49:21.583Z,49.97
2018-03-03T22:51:49.111Z,51.43
2018-03-03T22:54:16.621Z,50.30
2018-03-03T22:56:44.215Z,49.73
2018-03-03T22:59:12.481Z,47.30
2018-03-03T23:01:40.769Z,49.87
2018-03-03T23:04:08.365Z,48.37
2018-03-03T23:06:35.867Z,47.80
2018-03-03T23:09:04.241Z,45.43
2018-03-03T23:11:32.595Z,47.63
2018-03-03T23:14:00.112Z,46.60
2018-03-03T23:16:27.822Z,48.40
2018-03-03T23:18:55.332Z,49.03
2018-03-03T23:21:22.893Z,49.37
2018-03-03T23:23:50.430Z,50.00
2018-03-03T23:26:19.035Z,45.30
2018-03-03T23:28:46.636Z,46.93
2018-03-03T23:31:14.237Z,48.90
2018-03-03T23:33:41.912Z,47.10
2018-03-03T23:36:09.520Z,48.27
2018-03-03T23:38:37.108Z,48.63
2018-03-03T23:41:04.622Z,48.60
2018-03-03T23:43:32.177Z,46.67
2018-03-03T23:45:59.746Z,45.80
2018-03-03T23:48:27.333Z,48.77
2018-03-03T23:50:54.881Z,47.50
2018-03-03T23:53:23.157Z,51.43
2018-03-03T23:55:51.445Z,50.13
2018-03-03T23:58:18.964Z,50.30
